sensor_id;sensor_type;location;lat;lon;timestamp;pressure;altitude;pressure_sealevel;temperature;humidity
9538;BME280;4807;48.024;11.726;2022-11-20T00:01:25;94417.19;;;4.60;81.53
9538;BME280;4807;48.024;11.726;2022-11-20T00:04:33;94421.75;;;4.66;81.75
9538;BME280;4807;48.024;11.726;2022-11-20T00:07:43;94425.69;;;4.70;81.29
9538;BME280;4807;48.024;11.726;2022-11-20T00:10:51;94417.09;;;4.53;81.92
9538;BME280;4807;48.024;11.726;2022-11-20T00:14:01;94419.78;;;4.68;81.48
9538;BME280;4807;48.024;11.726;2022-11-20T00:17:09;94419.28;;;4.65;81.72
9538;BME280;4807;48.024;11.726;2022-11-20T00:20:18;94422.69;;;4.73;81.27
9538;BME280;4807;48.024;11.726;2022-11-20T00:23:28;94424.06;;;4.69;81.35
9538;BME280;4807;48.024;11.726;2022-11-20T00:26:36;94425.16;;;4.75;80.95
9538;BME280;4807;48.024;11.726;2022-11-20T00:29:45;94425.03;;;4.68;81.27
9538;BME280;4807;48.024;11.726;2022-11-20T00:32:56;94420.94;;;4.66;80.82
9538;BME280;4807;48.024;11.726;2022-11-20T00:36:07;94434.59;;;4.69;81.76
9538;BME280;4807;48.024;11.726;2022-11-20T00:39:17;94431.41;;;4.74;81.62
9538;BME280;4807;48.024;11.726;2022-11-20T00:42:26;94440.06;;;4.82;81.12
9538;BME280;4807;48.024;11.726;2022-11-20T00:45:34;94432.16;;;4.82;81.47
9538;BME280;4807;48.024;11.726;2022-11-20T00:48:43;94439.81;;;4.77;81.63
9538;BME280;4807;48.024;11.726;2022-11-20T00:51:51;94439.56;;;4.64;82.28
9538;BME280;4807;48.024;11.726;2022-11-20T00:55:01;94444.34;;;4.83;81.24
9538;BME280;4807;48.024;11.726;2022-11-20T00:58:09;94436.97;;;4.79;81.43
9538;BME280;4807;48.024;11.726;2022-11-20T01:01:22;94449.22;;;4.94;80.20
9538;BME280;4807;48.024;11.726;2022-11-20T01:04:32;94447.91;;;4.90;80.86
9538;BME280;4807;48.024;11.726;2022-11-20T01:07:40;94452.19;;;4.91;81.04
9538;BME280;4807;48.024;11.726;2022-11-20T01:10:50;94450.22;;;4.93;80.95
9538;BME280;4807;48.024;11.726;2022-11-20T01:14:00;94455.28;;;4.95;80.63
9538;BME280;4807;48.024;11.726;2022-11-20T01:17:09;94452.47;;;4.96;80.53
9538;BME280;4807;48.024;11.726;2022-11-20T01:20:17;94462.03;;;4.97;80.82
9538;BME280;4807;48.024;11.726;2022-11-20T01:23:25;94453.94;;;4.99;80.19
9538;BME280;4807;48.024;11.726;2022-11-20T01:26:38;94463.41;;;4.93;80.28
9538;BME280;4807;48.024;11.726;2022-11-20T01:29:46;94460.38;;;4.96;80.72
9538;BME280;4807;48.024;11.726;2022-11-20T01:32:55;94459.56;;;4.96;80.66
9538;BME280;4807;48.024;11.726;2022-11-20T01:36:06;94459.78;;;4.94;80.50
9538;BME280;4807;48.024;11.726;2022-11-20T01:39:18;94459.94;;;4.93;80.61
9538;BME280;4807;48.024;11.726;2022-11-20T01:42:29;94455.50;;;4.93;80.91
9538;BME280;4807;48.024;11.726;2022-11-20T01:46:05;94461.25;;;5.12;79.95
9538;BME280;4807;48.024;11.726;2022-11-20T01:49:19;94455.50;;;5.08;79.90
9538;BME280;4807;48.024;11.726;2022-11-20T01:52:34;94456.41;;;5.01;79.96
9538;BME280;4807;48.024;11.726;2022-11-20T01:55:50;94460.88;;;5.00;80.16
9538;BME280;4807;48.024;11.726;2022-11-20T01:59:03;94460.78;;;5.08;79.75
9538;BME280;4807;48.024;11.726;2022-11-20T02:02:13;94461.69;;;5.01;79.64
9538;BME280;4807;48.024;11.726;2022-11-20T02:05:31;94466.72;;;5.10;80.14
9538;BME280;4807;48.024;11.726;2022-11-20T02:08:41;94457.78;;;5.11;79.53
9538;BME280;4807;48.024;11.726;2022-11-20T02:11:49;94453.69;;;5.09;79.97
9538;BME280;4807;48.024;11.726;2022-11-20T02:14:59;94463.53;;;5.15;79.48
9538;BME280;4807;48.024;11.726;2022-11-20T02:18:07;94471.19;;;5.10;80.06
9538;BME280;4807;48.024;11.726;2022-11-20T02:21:33;94459.53;;;5.19;79.14
9538;BME280;4807;48.024;11.726;2022-11-20T02:24:46;94469.06;;;5.20;79.49
9538;BME280;4807;48.024;11.726;2022-11-20T02:27:56;94473.34;;;5.21;78.99
9538;BME280;4807;48.024;11.726;2022-11-20T02:31:04;94469.16;;;5.12;79.11
9538;BME280;4807;48.024;11.726;2022-11-20T02:34:13;94474.63;;;5.10;79.64
9538;BME280;4807;48.024;11.726;2022-11-20T02:42:35;94480.53;;;5.12;78.34
9538;BME280;4807;48.024;11.726;2022-11-20T02:45:44;94461.78;;;5.07;79.08
9538;BME280;4807;48.024;11.726;2022-11-20T02:48:52;94463.34;;;5.02;79.52
9538;BME280;4807;48.024;11.726;2022-11-20T02:52:01;94464.59;;;5.06;78.69
9538;BME280;4807;48.024;11.726;2022-11-20T02:55:09;94467.41;;;5.04;78.85
9538;BME280;4807;48.024;11.726;2022-11-20T02:58:19;94467.88;;;5.08;78.55
9538;BME280;4807;48.024;11.726;2022-11-20T03:01:27;94466.66;;;4.95;78.51
9538;BME280;4807;48.024;11.726;2022-11-20T03:04:36;94470.50;;;4.93;78.90
9538;BME280;4807;48.024;11.726;2022-11-20T03:07:44;94467.28;;;4.83;79.54
9538;BME280;4807;48.024;11.726;2022-11-20T03:10:53;94466.94;;;4.86;78.68
9538;BME280;4807;48.024;11.726;2022-11-20T03:14:03;94461.22;;;4.97;78.10
9538;BME280;4807;48.024;11.726;2022-11-20T03:17:11;94456.19;;;4.87;79.02
9538;BME280;4807;48.024;11.726;2022-11-20T03:20:20;94461.44;;;4.87;78.95
9538;BME280;4807;48.024;11.726;2022-11-20T03:23:30;94457.22;;;5.01;78.42
9538;BME280;4807;48.024;11.726;2022-11-20T03:26:39;94456.84;;;4.89;78.95
9538;BME280;4807;48.024;11.726;2022-11-20T03:29:49;94462.47;;;4.86;78.72
9538;BME280;4807;48.024;11.726;2022-11-20T03:32:57;94471.31;;;4.93;78.99
9538;BME280;4807;48.024;11.726;2022-11-20T03:36:09;94471.13;;;4.95;78.31
9538;BME280;4807;48.024;11.726;2022-11-20T03:39:18;94473.81;;;4.87;78.68
9538;BME280;4807;48.024;11.726;2022-11-20T03:42:27;94468.28;;;4.82;78.67
9538;BME280;4807;48.024;11.726;2022-11-20T03:45:56;94464.16;;;4.79;79.90
9538;BME280;4807;48.024;11.726;2022-11-20T03:49:04;94463.75;;;4.90;79.36
9538;BME280;4807;48.024;11.726;2022-11-20T03:52:12;94465.91;;;4.87;78.95
9538;BME280;4807;48.024;11.726;2022-11-20T03:55:21;94462.06;;;4.75;79.07
9538;BME280;4807;48.024;11.726;2022-11-20T03:58:29;94467.38;;;4.89;79.31
9538;BME280;4807;48.024;11.726;2022-11-20T04:01:39;94462.09;;;4.89;79.06
9538;BME280;4807;48.024;11.726;2022-11-20T04:04:54;94460.09;;;4.77;79.87
9538;BME280;4807;48.024;11.726;2022-11-20T04:08:02;94464.16;;;4.79;79.07
9538;BME280;4807;48.024;11.726;2022-11-20T04:11:14;94467.81;;;4.78;79.04
9538;BME280;4807;48.024;11.726;2022-11-20T04:14:23;94469.81;;;4.76;78.86
9538;BME280;4807;48.024;11.726;2022-11-20T04:17:32;94465.81;;;4.80;79.08
9538;BME280;4807;48.024;11.726;2022-11-20T04:20:41;94466.72;;;4.87;78.20
9538;BME280;4807;48.024;11.726;2022-11-20T04:23:49;94472.97;;;4.72;79.02
9538;BME280;4807;48.024;11.726;2022-11-20T04:26:58;94462.88;;;4.75;78.56
9538;BME280;4807;48.024;11.726;2022-11-20T04:30:07;94463.00;;;4.82;78.37
9538;BME280;4807;48.024;11.726;2022-11-20T04:33:18;94456.25;;;4.79;78.69
9538;BME280;4807;48.024;11.726;2022-11-20T04:36:28;94455.97;;;4.74;78.35
9538;BME280;4807;48.024;11.726;2022-11-20T04:39:37;94459.78;;;4.72;78.81
9538;BME280;4807;48.024;11.726;2022-11-20T04:42:45;94459.25;;;4.76;78.74
9538;BME280;4807;48.024;11.726;2022-11-20T04:45:54;94466.38;;;4.90;77.45
9538;BME280;4807;48.024;11.726;2022-11-20T04:49:04;94469.56;;;4.86;77.69
9538;BME280;4807;48.024;11.726;2022-11-20T04:52:13;94478.00;;;4.81;77.62
9538;BME280;4807;48.024;11.726;2022-11-20T04:55:21;94472.72;;;4.81;77.93
9538;BME280;4807;48.024;11.726;2022-11-20T04:58:30;94468.88;;;4.69;78.76
9538;BME280;4807;48.024;11.726;2022-11-20T05:01:38;94458.78;;;4.73;78.53
9538;BME280;4807;48.024;11.726;2022-11-20T05:04:49;94464.53;;;4.76;78.65
9538;BME280;4807;48.024;11.726;2022-11-20T05:07:57;94469.97;;;4.75;78.89
9538;BME280;4807;48.024;11.726;2022-11-20T05:11:08;94477.66;;;4.84;78.40
9538;BME280;4807;48.024;11.726;2022-11-20T05:14:16;94476.59;;;4.93;77.83
9538;BME280;4807;48.024;11.726;2022-11-20T05:17:24;94469.19;;;4.89;77.43
9538;BME280;4807;48.024;11.726;2022-11-20T05:20:34;94481.78;;;4.79;78.53
9538;BME280;4807;48.024;11.726;2022-11-20T05:23:44;94476.84;;;4.84;78.66
9538;BME280;4807;48.024;11.726;2022-11-20T05:26:52;94473.31;;;4.91;77.92
9538;BME280;4807;48.024;11.726;2022-11-20T05:30:01;94478.47;;;4.85;78.50
9538;BME280;4807;48.024;11.726;2022-11-20T05:33:09;94484.91;;;4.82;78.49
9538;BME280;4807;48.024;11.726;2022-11-20T05:36:20;94476.97;;;4.68;79.92
9538;BME280;4807;48.024;11.726;2022-11-20T05:39:29;94478.00;;;4.81;79.07
9538;BME280;4807;48.024;11.726;2022-11-20T05:42:37;94480.13;;;4.86;79.12
9538;BME280;4807;48.024;11.726;2022-11-20T05:45:52;94484.19;;;4.88;78.89
9538;BME280;4807;48.024;11.726;2022-11-20T05:49:01;94488.44;;;4.75;79.65
9538;BME280;4807;48.024;11.726;2022-11-20T05:52:11;94488.31;;;4.68;79.66
9538;BME280;4807;48.024;11.726;2022-11-20T05:55:19;94482.00;;;4.77;79.49
9538;BME280;4807;48.024;11.726;2022-11-20T05:58:28;94488.03;;;4.86;79.09
9538;BME280;4807;48.024;11.726;2022-11-20T06:01:37;94484.25;;;4.80;79.99
9538;BME280;4807;48.024;11.726;2022-11-20T06:04:45;94489.84;;;4.85;79.14
9538;BME280;4807;48.024;11.726;2022-11-20T06:07:55;94487.38;;;4.84;79.08
9538;BME280;4807;48.024;11.726;2022-11-20T06:11:05;94490.03;;;4.84;79.44
9538;BME280;4807;48.024;11.726;2022-11-20T06:14:14;94482.56;;;4.87;79.52
9538;BME280;4807;48.024;11.726;2022-11-20T06:17:22;94483.28;;;4.81;79.84
9538;BME280;4807;48.024;11.726;2022-11-20T06:20:30;94480.34;;;4.76;79.28
9538;BME280;4807;48.024;11.726;2022-11-20T06:23:47;94485.53;;;4.70;79.56
9538;BME280;4807;48.024;11.726;2022-11-20T06:26:56;94485.59;;;4.62;79.31
9538;BME280;4807;48.024;11.726;2022-11-20T06:30:05;94480.81;;;4.57;79.43
9538;BME280;4807;48.024;11.726;2022-11-20T06:33:14;94488.44;;;4.29;80.40
9538;BME280;4807;48.024;11.726;2022-11-20T06:36:23;94487.34;;;4.15;80.60
9538;BME280;4807;48.024;11.726;2022-11-20T06:39:33;94498.91;;;4.06;80.95
9538;BME280;4807;48.024;11.726;2022-11-20T06:42:41;94494.94;;;4.10;80.21
9538;BME280;4807;48.024;11.726;2022-11-20T06:45:52;94498.06;;;4.06;80.59
9538;BME280;4807;48.024;11.726;2022-11-20T06:49:01;94506.25;;;3.88;80.31
9538;BME280;4807;48.024;11.726;2022-11-20T06:52:09;94498.19;;;3.81;80.64
9538;BME280;4807;48.024;11.726;2022-11-20T06:55:21;94507.19;;;3.95;79.33
9538;BME280;4807;48.024;11.726;2022-11-20T06:58:32;94510.25;;;3.68;80.13
9538;BME280;4807;48.024;11.726;2022-11-20T07:01:40;94518.16;;;3.68;80.02
9538;BME280;4807;48.024;11.726;2022-11-20T07:04:49;94524.75;;;3.64;80.00
9538;BME280;4807;48.024;11.726;2022-11-20T07:07:57;94536.31;;;3.47;81.56
9538;BME280;4807;48.024;11.726;2022-11-20T07:11:07;94529.03;;;3.65;80.47
9538;BME280;4807;48.024;11.726;2022-11-20T07:14:16;94531.13;;;3.77;80.06
9538;BME280;4807;48.024;11.726;2022-11-20T07:17:24;94528.16;;;3.80;80.61
9538;BME280;4807;48.024;11.726;2022-11-20T07:20:32;94523.97;;;4.02;79.32
9538;BME280;4807;48.024;11.726;2022-11-20T07:23:41;94529.06;;;4.35;78.89
9538;BME280;4807;48.024;11.726;2022-11-20T07:26:51;94533.16;;;4.68;78.62
9538;BME280;4807;48.024;11.726;2022-11-20T07:29:59;94536.66;;;5.06;76.29
9538;BME280;4807;48.024;11.726;2022-11-20T07:33:07;94537.03;;;5.41;75.77
9538;BME280;4807;48.024;11.726;2022-11-20T07:36:15;94537.31;;;5.60;74.20
9538;BME280;4807;48.024;11.726;2022-11-20T07:39:24;94541.25;;;5.64;74.34
9538;BME280;4807;48.024;11.726;2022-11-20T07:42:33;94531.28;;;5.89;74.46
9538;BME280;4807;48.024;11.726;2022-11-20T07:45:42;94534.81;;;6.11;72.73
9538;BME280;4807;48.024;11.726;2022-11-20T07:48:50;94536.81;;;6.24;70.97
9538;BME280;4807;48.024;11.726;2022-11-20T07:51:59;94527.56;;;6.34;71.23
9538;BME280;4807;48.024;11.726;2022-11-20T07:55:11;94524.31;;;6.18;71.87
9538;BME280;4807;48.024;11.726;2022-11-20T07:58:22;94524.06;;;5.98;71.48
9538;BME280;4807;48.024;11.726;2022-11-20T08:01:30;94531.84;;;5.99;72.03
9538;BME280;4807;48.024;11.726;2022-11-20T08:04:38;94532.75;;;5.92;71.43
9538;BME280;4807;48.024;11.726;2022-11-20T08:07:47;94531.72;;;5.93;71.52
9538;BME280;4807;48.024;11.726;2022-11-20T08:10:57;94536.06;;;5.86;71.79
9538;BME280;4807;48.024;11.726;2022-11-20T08:14:28;94532.75;;;5.92;71.42
9538;BME280;4807;48.024;11.726;2022-11-20T08:17:35;94530.47;;;5.89;71.90
9538;BME280;4807;48.024;11.726;2022-11-20T08:20:45;94534.41;;;5.85;70.74
9538;BME280;4807;48.024;11.726;2022-11-20T08:23:53;94531.28;;;5.89;71.12
9538;BME280;4807;48.024;11.726;2022-11-20T08:27:02;94534.09;;;5.88;71.54
9538;BME280;4807;48.024;11.726;2022-11-20T08:30:14;94537.47;;;5.96;70.35
9538;BME280;4807;48.024;11.726;2022-11-20T08:33:22;94528.91;;;5.94;71.08
9538;BME280;4807;48.024;11.726;2022-11-20T08:36:33;94540.66;;;5.92;71.32
9538;BME280;4807;48.024;11.726;2022-11-20T08:39:41;94539.75;;;5.99;72.13
9538;BME280;4807;48.024;11.726;2022-11-20T08:42:50;94531.53;;;6.09;71.12
9538;BME280;4807;48.024;11.726;2022-11-20T08:46:00;94539.81;;;6.21;69.95
9538;BME280;4807;48.024;11.726;2022-11-20T08:49:11;94541.00;;;6.18;69.52
9538;BME280;4807;48.024;11.726;2022-11-20T08:52:19;94547.19;;;6.25;69.54
9538;BME280;4807;48.024;11.726;2022-11-20T08:55:28;94534.63;;;6.27;69.26
9538;BME280;4807;48.024;11.726;2022-11-20T08:58:36;94535.91;;;6.31;68.65
9538;BME280;4807;48.024;11.726;2022-11-20T09:02:07;94533.75;;;6.41;68.99
9538;BME280;4807;48.024;11.726;2022-11-20T09:05:15;94541.94;;;6.61;68.69
9538;BME280;4807;48.024;11.726;2022-11-20T09:08:24;94542.41;;;6.65;67.62
9538;BME280;4807;48.024;11.726;2022-11-20T09:11:32;94536.56;;;6.55;67.22
9538;BME280;4807;48.024;11.726;2022-11-20T09:14:40;94536.19;;;6.58;67.20
9538;BME280;4807;48.024;11.726;2022-11-20T09:17:57;94535.75;;;6.54;66.77
9538;BME280;4807;48.024;11.726;2022-11-20T09:21:11;94535.13;;;6.52;67.09
9538;BME280;4807;48.024;11.726;2022-11-20T09:24:20;94538.28;;;6.62;67.04
9538;BME280;4807;48.024;11.726;2022-11-20T09:27:29;94527.78;;;6.69;65.42
9538;BME280;4807;48.024;11.726;2022-11-20T09:30:37;94530.31;;;6.77;65.37
9538;BME280;4807;48.024;11.726;2022-11-20T09:33:47;94525.72;;;6.85;65.45
9538;BME280;4807;48.024;11.726;2022-11-20T09:36:55;94527.06;;;6.96;65.33
9538;BME280;4807;48.024;11.726;2022-11-20T09:40:20;94515.63;;;7.17;64.98
9538;BME280;4807;48.024;11.726;2022-11-20T09:43:44;94509.63;;;7.30;62.49
9538;BME280;4807;48.024;11.726;2022-11-20T09:47:02;94509.00;;;7.27;63.61
9538;BME280;4807;48.024;11.726;2022-11-20T09:50:29;94517.38;;;7.31;64.56
9538;BME280;4807;48.024;11.726;2022-11-20T09:53:56;94508.88;;;7.36;63.64
9538;BME280;4807;48.024;11.726;2022-11-20T09:57:14;94513.44;;;7.48;62.38
9538;BME280;4807;48.024;11.726;2022-11-20T10:00:26;94514.28;;;7.55;62.14
9538;BME280;4807;48.024;11.726;2022-11-20T10:03:45;94501.25;;;7.54;61.00
9538;BME280;4807;48.024;11.726;2022-11-20T10:07:06;94500.38;;;7.47;61.07
9538;BME280;4807;48.024;11.726;2022-11-20T10:10:42;94497.19;;;7.58;59.56
9538;BME280;4807;48.024;11.726;2022-11-20T10:14:13;94494.06;;;7.76;60.17
9538;BME280;4807;48.024;11.726;2022-11-20T10:17:48;94500.97;;;7.70;58.17
9538;BME280;4807;48.024;11.726;2022-11-20T10:21:14;94496.22;;;7.93;60.38
9538;BME280;4807;48.024;11.726;2022-11-20T10:24:43;94487.53;;;8.13;59.27
9538;BME280;4807;48.024;11.726;2022-11-20T10:28:14;94493.44;;;8.15;58.37
9538;BME280;4807;48.024;11.726;2022-11-20T10:31:32;94492.06;;;8.19;58.68
9538;BME280;4807;48.024;11.726;2022-11-20T10:34:50;94492.41;;;8.09;57.79
9538;BME280;4807;48.024;11.726;2022-11-20T10:38:05;94491.34;;;8.03;58.77
9538;BME280;4807;48.024;11.726;2022-11-20T10:41:23;94491.03;;;8.20;58.11
9538;BME280;4807;48.024;11.726;2022-11-20T10:44:42;94491.75;;;8.35;59.39
9538;BME280;4807;48.024;11.726;2022-11-20T10:48:19;94496.28;;;8.54;57.42
9538;BME280;4807;48.024;11.726;2022-11-20T10:51:37;94483.56;;;8.36;57.46
9538;BME280;4807;48.024;11.726;2022-11-20T10:54:59;94480.41;;;8.20;57.31
9538;BME280;4807;48.024;11.726;2022-11-20T10:58:22;94479.56;;;8.54;56.74
9538;BME280;4807;48.024;11.726;2022-11-20T11:01:40;94470.31;;;8.36;57.24
9538;BME280;4807;48.024;11.726;2022-11-20T11:04:53;94477.31;;;8.51;57.01
9538;BME280;4807;48.024;11.726;2022-11-20T11:08:04;94469.56;;;8.62;56.15
9538;BME280;4807;48.024;11.726;2022-11-20T11:11:24;94472.47;;;8.67;56.22
9538;BME280;4807;48.024;11.726;2022-11-20T11:14:46;94463.69;;;8.73;57.13
9538;BME280;4807;48.024;11.726;2022-11-20T11:17:56;94468.56;;;8.63;56.87
9538;BME280;4807;48.024;11.726;2022-11-20T11:21:05;94467.59;;;8.30;57.39
9538;BME280;4807;48.024;11.726;2022-11-20T11:24:21;94450.66;;;8.18;57.27
9538;BME280;4807;48.024;11.726;2022-11-20T11:27:49;94462.44;;;8.15;57.64
9538;BME280;4807;48.024;11.726;2022-11-20T11:31:00;94458.31;;;7.99;57.56
9538;BME280;4807;48.024;11.726;2022-11-20T11:34:13;94463.63;;;7.99;58.38
9538;BME280;4807;48.024;11.726;2022-11-20T11:37:22;94459.16;;;8.07;58.65
9538;BME280;4807;48.024;11.726;2022-11-20T11:40:33;94460.78;;;8.08;58.69
9538;BME280;4807;48.024;11.726;2022-11-20T11:43:52;94444.09;;;8.14;59.05
9538;BME280;4807;48.024;11.726;2022-11-20T11:47:25;94444.94;;;8.21;60.05
9538;BME280;4807;48.024;11.726;2022-11-20T11:50:34;94448.41;;;8.28;58.99
9538;BME280;4807;48.024;11.726;2022-11-20T11:53:43;94441.75;;;8.38;58.11
9538;BME280;4807;48.024;11.726;2022-11-20T11:56:52;94446.31;;;8.51;58.13
9538;BME280;4807;48.024;11.726;2022-11-20T12:00:08;94440.75;;;8.46;58.18
9538;BME280;4807;48.024;11.726;2022-11-20T12:03:28;94447.53;;;8.68;57.78
9538;BME280;4807;48.024;11.726;2022-11-20T12:06:44;94437.09;;;8.54;57.41
9538;BME280;4807;48.024;11.726;2022-11-20T12:09:58;94441.59;;;8.60;57.43
9538;BME280;4807;48.024;11.726;2022-11-20T12:13:20;94447.53;;;8.68;56.88
9538;BME280;4807;48.024;11.726;2022-11-20T12:16:36;94440.59;;;8.61;55.84
9538;BME280;4807;48.024;11.726;2022-11-20T12:19:47;94445.94;;;8.74;57.11
9538;BME280;4807;48.024;11.726;2022-11-20T12:23:06;94438.38;;;8.77;57.84
9538;BME280;4807;48.024;11.726;2022-11-20T12:26:31;94434.06;;;8.76;56.50
9538;BME280;4807;48.024;11.726;2022-11-20T12:29:52;94421.81;;;8.62;56.52
9538;BME280;4807;48.024;11.726;2022-11-20T12:33:29;94432.84;;;8.59;57.17
9538;BME280;4807;48.024;11.726;2022-11-20T12:36:53;94428.69;;;8.37;56.98
9538;BME280;4807;48.024;11.726;2022-11-20T12:40:27;94433.94;;;8.24;58.02
9538;BME280;4807;48.024;11.726;2022-11-20T12:43:43;94436.50;;;8.04;60.43
9538;BME280;4807;48.024;11.726;2022-11-20T12:47:22;94436.28;;;7.58;61.54
9538;BME280;4807;48.024;11.726;2022-11-20T12:50:51;94435.03;;;7.54;64.32
9538;BME280;4807;48.024;11.726;2022-11-20T12:55:06;94430.63;;;7.33;64.09
9538;BME280;4807;48.024;11.726;2022-11-20T12:58:27;94444.84;;;7.32;65.62
9538;BME280;4807;48.024;11.726;2022-11-20T13:01:48;94447.88;;;7.01;66.92
9538;BME280;4807;48.024;11.726;2022-11-20T13:05:19;94457.09;;;6.84;68.97
9538;BME280;4807;48.024;11.726;2022-11-20T13:08:33;94445.53;;;6.64;71.02
9538;BME280;4807;48.024;11.726;2022-11-20T13:11:51;94443.13;;;6.69;70.58
9538;BME280;4807;48.024;11.726;2022-11-20T13:15:18;94446.72;;;6.61;70.36
9538;BME280;4807;48.024;11.726;2022-11-20T13:18:39;94448.22;;;6.70;70.91
9538;BME280;4807;48.024;11.726;2022-11-20T13:21:50;94449.94;;;6.57;70.69
9538;BME280;4807;48.024;11.726;2022-11-20T13:24:58;94438.84;;;6.46;71.30
9538;BME280;4807;48.024;11.726;2022-11-20T13:28:29;94436.19;;;6.46;72.04
9538;BME280;4807;48.024;11.726;2022-11-20T13:31:43;94434.50;;;6.39;72.23
9538;BME280;4807;48.024;11.726;2022-11-20T13:34:53;94436.56;;;6.43;73.37
9538;BME280;4807;48.024;11.726;2022-11-20T13:38:07;94437.38;;;6.44;72.75
9538;BME280;4807;48.024;11.726;2022-11-20T13:41:25;94435.34;;;6.25;73.38
9538;BME280;4807;48.024;11.726;2022-11-20T13:44:43;94423.34;;;6.22;73.87
9538;BME280;4807;48.024;11.726;2022-11-20T13:47:54;94421.56;;;6.29;74.35
9538;BME280;4807;48.024;11.726;2022-11-20T13:51:13;94423.84;;;6.32;74.15
9538;BME280;4807;48.024;11.726;2022-11-20T13:54:51;94422.81;;;6.33;74.46
9538;BME280;4807;48.024;11.726;2022-11-20T13:58:24;94421.34;;;6.24;74.54
9538;BME280;4807;48.024;11.726;2022-11-20T14:01:42;94417.34;;;6.35;73.43
9538;BME280;4807;48.024;11.726;2022-11-20T14:04:58;94418.00;;;6.37;73.06
9538;BME280;4807;48.024;11.726;2022-11-20T14:08:20;94411.88;;;6.36;73.41
9538;BME280;4807;48.024;11.726;2022-11-20T14:11:31;94408.66;;;6.41;71.34
9538;BME280;4807;48.024;11.726;2022-11-20T14:14:49;94406.78;;;6.35;71.29
9538;BME280;4807;48.024;11.726;2022-11-20T14:18:11;94419.25;;;6.41;71.25
9538;BME280;4807;48.024;11.726;2022-11-20T14:21:26;94417.41;;;6.41;71.86
9538;BME280;4807;48.024;11.726;2022-11-20T14:24:35;94408.53;;;6.49;70.66
9538;BME280;4807;48.024;11.726;2022-11-20T14:27:50;94405.91;;;6.49;71.42
9538;BME280;4807;48.024;11.726;2022-11-20T14:31:01;94409.88;;;6.38;71.01
9538;BME280;4807;48.024;11.726;2022-11-20T14:34:17;94410.75;;;6.45;70.34
9538;BME280;4807;48.024;11.726;2022-11-20T14:37:33;94403.84;;;6.44;70.01
9538;BME280;4807;48.024;11.726;2022-11-20T14:40:42;94409.13;;;6.44;70.42
9538;BME280;4807;48.024;11.726;2022-11-20T14:43:56;94410.44;;;6.34;70.19
9538;BME280;4807;48.024;11.726;2022-11-20T14:47:05;94404.44;;;6.25;71.02
9538;BME280;4807;48.024;11.726;2022-11-20T14:50:20;94407.72;;;6.27;71.20
9538;BME280;4807;48.024;11.726;2022-11-20T14:53:30;94409.00;;;6.31;69.21
9538;BME280;4807;48.024;11.726;2022-11-20T14:56:38;94410.63;;;6.32;70.42
9538;BME280;4807;48.024;11.726;2022-11-20T14:59:46;94409.59;;;6.33;70.67
9538;BME280;4807;48.024;11.726;2022-11-20T15:02:55;94420.56;;;6.30;70.51
9538;BME280;4807;48.024;11.726;2022-11-20T15:06:10;94407.34;;;6.30;69.14
9538;BME280;4807;48.024;11.726;2022-11-20T15:09:19;94416.28;;;6.29;68.42
9538;BME280;4807;48.024;11.726;2022-11-20T15:12:29;94418.47;;;6.26;68.28
9538;BME280;4807;48.024;11.726;2022-11-20T15:15:44;94414.41;;;6.23;67.30
9538;BME280;4807;48.024;11.726;2022-11-20T15:18:56;94421.69;;;6.21;68.24
9538;BME280;4807;48.024;11.726;2022-11-20T15:22:12;94427.34;;;6.18;67.50
9538;BME280;4807;48.024;11.726;2022-11-20T15:25:33;94423.81;;;6.11;68.01
9538;BME280;4807;48.024;11.726;2022-11-20T15:28:44;94422.44;;;6.15;67.67
9538;BME280;4807;48.024;11.726;2022-11-20T15:31:54;94408.34;;;6.08;68.79
9538;BME280;4807;48.024;11.726;2022-11-20T15:35:04;94409.94;;;6.09;67.97
9538;BME280;4807;48.024;11.726;2022-11-20T15:38:14;94401.13;;;6.02;68.33
9538;BME280;4807;48.024;11.726;2022-11-20T15:41:22;94401.31;;;6.00;67.81
9538;BME280;4807;48.024;11.726;2022-11-20T15:44:31;94391.16;;;5.97;68.71
9538;BME280;4807;48.024;11.726;2022-11-20T15:47:39;94401.53;;;5.99;68.81
9538;BME280;4807;48.024;11.726;2022-11-20T15:50:54;94383.59;;;5.80;70.58
9538;BME280;4807;48.024;11.726;2022-11-20T15:54:12;94398.06;;;5.84;69.91
9538;BME280;4807;48.024;11.726;2022-11-20T15:57:21;94396.97;;;5.78;70.38
9538;BME280;4807;48.024;11.726;2022-11-20T16:00:29;94388.34;;;5.69;70.09
9538;BME280;4807;48.024;11.726;2022-11-20T16:03:38;94397.09;;;5.55;71.30
9538;BME280;4807;48.024;11.726;2022-11-20T16:06:48;94394.09;;;5.44;71.30
9538;BME280;4807;48.024;11.726;2022-11-20T16:09:58;94388.91;;;5.50;71.15
9538;BME280;4807;48.024;11.726;2022-11-20T16:13:13;94396.84;;;5.50;70.85
9538;BME280;4807;48.024;11.726;2022-11-20T16:16:39;94389.91;;;5.49;70.46
9538;BME280;4807;48.024;11.726;2022-11-20T16:19:50;94390.00;;;5.41;71.31
9538;BME280;4807;48.024;11.726;2022-11-20T16:22:58;94389.03;;;5.42;71.68
9538;BME280;4807;48.024;11.726;2022-11-20T16:26:13;94391.38;;;5.37;71.13
9538;BME280;4807;48.024;11.726;2022-11-20T16:29:23;94388.47;;;5.32;71.58
9538;BME280;4807;48.024;11.726;2022-11-20T16:32:31;94392.72;;;5.04;72.83
9538;BME280;4807;48.024;11.726;2022-11-20T16:35:41;94388.06;;;4.91;73.05
9538;BME280;4807;48.024;11.726;2022-11-20T16:38:52;94396.25;;;4.81;73.92
9538;BME280;4807;48.024;11.726;2022-11-20T16:42:05;94393.16;;;4.55;74.99
9538;BME280;4807;48.024;11.726;2022-11-20T16:45:15;94382.06;;;4.45;75.68
9538;BME280;4807;48.024;11.726;2022-11-20T16:48:32;94383.38;;;4.64;74.51
9538;BME280;4807;48.024;11.726;2022-11-20T16:51:41;94375.59;;;4.47;75.33
9538;BME280;4807;48.024;11.726;2022-11-20T16:54:50;94386.16;;;4.25;75.60
9538;BME280;4807;48.024;11.726;2022-11-20T16:58:02;94380.38;;;4.29;75.38
9538;BME280;4807;48.024;11.726;2022-11-20T17:01:12;94376.34;;;4.18;75.82
9538;BME280;4807;48.024;11.726;2022-11-20T17:04:23;94382.72;;;4.01;76.25
9538;BME280;4807;48.024;11.726;2022-11-20T17:07:32;94378.81;;;3.97;76.61
9538;BME280;4807;48.024;11.726;2022-11-20T17:10:41;94371.25;;;3.94;77.27
9538;BME280;4807;48.024;11.726;2022-11-20T17:13:51;94364.16;;;3.72;77.89
9538;BME280;4807;48.024;11.726;2022-11-20T17:17:02;94369.13;;;3.59;78.18
9538;BME280;4807;48.024;11.726;2022-11-20T17:20:12;94368.88;;;3.45;78.41
9538;BME280;4807;48.024;11.726;2022-11-20T17:23:21;94365.66;;;3.27;79.34
9538;BME280;4807;48.024;11.726;2022-11-20T17:26:30;94366.25;;;3.45;78.90
9538;BME280;4807;48.024;11.726;2022-11-20T17:29:40;94369.16;;;3.20;79.57
9538;BME280;4807;48.024;11.726;2022-11-20T17:32:50;94371.44;;;3.23;79.58
9538;BME280;4807;48.024;11.726;2022-11-20T17:35:58;94357.31;;;3.24;79.30